sensor_id;sensor_type;location;lat;lon;timestamp;P1;durP1;ratioP1;P2;durP2;ratioP2
22543;SDS011;11438;52.044;8.716;2022-07-05T00:00:09;1.40;;;0.65;;
22543;SDS011;11438;52.044;8.716;2022-07-05T00:02:35;0.73;;;0.60;;
22543;SDS011;11438;52.044;8.716;2022-07-05T00:05:01;0.80;;;0.57;;
22543;SDS011;11438;52.044;8.716;2022-07-05T00:07:26;0.70;;;0.60;;
22543;SDS011;11438;52.044;8.716;2022-07-05T00:09:53;0.90;;;0.57;;
22543;SDS011;11438;52.044;8.716;2022-07-05T00:12:21;1.42;;;0.60;;
22543;SDS011;11438;52.044;8.716;2022-07-05T00:14:48;2.28;;;0.82;;
22543;SDS011;11438;52.044;8.716;2022-07-05T00:17:14;0.57;;;0.52;;
22543;SDS011;11438;52.044;8.716;2022-07-05T00:19:40;1.23;;;0.70;;
22543;SDS011;11438;52.044;8.716;2022-07-05T00:22:06;2.70;;;0.93;;
22543;SDS011;11438;52.044;8.716;2022-07-05T00:24:31;2.67;;;0.80;;
22543;SDS011;11438;52.044;8.716;2022-07-05T00:26:57;1.10;;;0.70;;
22543;SDS011;11438;52.044;8.716;2022-07-05T00:29:23;1.52;;;0.60;;
22543;SDS011;11438;52.044;8.716;2022-07-05T00:31:48;2.05;;;0.60;;
22543;SDS011;11438;52.044;8.716;2022-07-05T00:34:14;1.83;;;0.90;;
22543;SDS011;11438;52.044;8.716;2022-07-05T00:36:40;1.88;;;0.80;;
22543;SDS011;11438;52.044;8.716;2022-07-05T00:39:06;1.50;;;0.80;;
22543;SDS011;11438;52.044;8.716;2022-07-05T00:41:32;1.00;;;0.73;;
22543;SDS011;11438;52.044;8.716;2022-07-05T00:43:59;2.38;;;0.80;;
22543;SDS011;11438;52.044;8.716;2022-07-05T00:46:26;2.05;;;0.80;;
22543;SDS011;11438;52.044;8.716;2022-07-05T00:48:52;1.83;;;0.70;;
22543;SDS011;11438;52.044;8.716;2022-07-05T00:51:18;1.00;;;0.80;;
22543;SDS011;11438;52.044;8.716;2022-07-05T00:53:44;1.58;;;0.70;;
22543;SDS011;11438;52.044;8.716;2022-07-05T00:56:13;1.52;;;0.90;;
22543;SDS011;11438;52.044;8.716;2022-07-05T00:58:39;1.20;;;0.73;;
22543;SDS011;11438;52.044;8.716;2022-07-05T01:01:06;1.25;;;0.70;;
22543;SDS011;11438;52.044;8.716;2022-07-05T01:03:33;2.30;;;0.77;;
22543;SDS011;11438;52.044;8.716;2022-07-05T01:06:00;1.77;;;0.70;;
22543;SDS011;11438;52.044;8.716;2022-07-05T01:08:26;1.85;;;0.60;;
22543;SDS011;11438;52.044;8.716;2022-07-05T01:10:54;2.30;;;0.90;;
22543;SDS011;11438;52.044;8.716;2022-07-05T01:13:21;1.17;;;0.75;;
22543;SDS011;11438;52.044;8.716;2022-07-05T01:15:47;1.30;;;0.70;;
22543;SDS011;11438;52.044;8.716;2022-07-05T01:18:14;0.60;;;0.60;;
22543;SDS011;11438;52.044;8.716;2022-07-05T01:20:40;1.73;;;0.80;;
22543;SDS011;11438;52.044;8.716;2022-07-05T01:23:06;1.00;;;0.68;;
22543;SDS011;11438;52.044;8.716;2022-07-05T01:25:33;1.35;;;0.65;;
22543;SDS011;11438;52.044;8.716;2022-07-05T01:27:59;1.10;;;0.60;;
22543;SDS011;11438;52.044;8.716;2022-07-05T01:30:25;2.55;;;1.00;;
22543;SDS011;11438;52.044;8.716;2022-07-05T01:32:51;1.35;;;0.70;;
22543;SDS011;11438;52.044;8.716;2022-07-05T01:35:17;1.67;;;0.90;;
22543;SDS011;11438;52.044;8.716;2022-07-05T01:37:45;2.65;;;0.80;;
22543;SDS011;11438;52.044;8.716;2022-07-05T01:40:12;1.33;;;0.60;;
22543;SDS011;11438;52.044;8.716;2022-07-05T01:42:38;2.58;;;0.75;;
22543;SDS011;11438;52.044;8.716;2022-07-05T01:45:04;0.75;;;0.60;;
22543;SDS011;11438;52.044;8.716;2022-07-05T01:47:38;0.90;;;0.80;;
22543;SDS011;11438;52.044;8.716;2022-07-05T01:50:09;1.13;;;0.80;;
22543;SDS011;11438;52.044;8.716;2022-07-05T01:52:37;1.35;;;0.77;;
22543;SDS011;11438;52.044;8.716;2022-07-05T01:55:05;1.80;;;1.00;;
22543;SDS011;11438;52.044;8.716;2022-07-05T01:57:31;1.23;;;0.80;;
22543;SDS011;11438;52.044;8.716;2022-07-05T01:59:57;1.33;;;0.88;;
22543;SDS011;11438;52.044;8.716;2022-07-05T02:02:22;1.83;;;0.80;;
22543;SDS011;11438;52.044;8.716;2022-07-05T02:04:48;1.02;;;0.60;;
22543;SDS011;11438;52.044;8.716;2022-07-05T02:07:13;1.30;;;0.85;;
22543;SDS011;11438;52.044;8.716;2022-07-05T02:09:39;1.00;;;0.90;;
22543;SDS011;11438;52.044;8.716;2022-07-05T02:12:04;4.00;;;0.80;;
22543;SDS011;11438;52.044;8.716;2022-07-05T02:14:30;1.15;;;0.68;;
22543;SDS011;11438;52.044;8.716;2022-07-05T02:16:56;1.50;;;0.82;;
22543;SDS011;11438;52.044;8.716;2022-07-05T02:19:22;1.05;;;0.75;;
22543;SDS011;11438;52.044;8.716;2022-07-05T02:21:48;0.70;;;0.70;;
22543;SDS011;11438;52.044;8.716;2022-07-05T02:24:14;0.80;;;0.70;;
22543;SDS011;11438;52.044;8.716;2022-07-05T02:26:39;1.13;;;0.60;;
22543;SDS011;11438;52.044;8.716;2022-07-05T02:29:05;1.10;;;0.80;;
22543;SDS011;11438;52.044;8.716;2022-07-05T02:31:30;1.05;;;0.70;;
22543;SDS011;11438;52.044;8.716;2022-07-05T02:33:56;0.95;;;0.70;;
22543;SDS011;11438;52.044;8.716;2022-07-05T02:36:22;1.05;;;0.80;;
22543;SDS011;11438;52.044;8.716;2022-07-05T02:38:48;1.98;;;0.77;;
22543;SDS011;11438;52.044;8.716;2022-07-05T02:41:13;1.02;;;0.70;;
22543;SDS011;11438;52.044;8.716;2022-07-05T02:43:39;0.93;;;0.60;;
22543;SDS011;11438;52.044;8.716;2022-07-05T02:46:06;1.30;;;0.70;;
22543;SDS011;11438;52.044;8.716;2022-07-05T02:48:32;1.08;;;0.80;;
22543;SDS011;11438;52.044;8.716;2022-07-05T02:50:59;3.20;;;0.80;;
22543;SDS011;11438;52.044;8.716;2022-07-05T02:53:25;1.23;;;0.73;;
22543;SDS011;11438;52.044;8.716;2022-07-05T02:55:50;3.05;;;1.00;;
22543;SDS011;11438;52.044;8.716;2022-07-05T02:58:16;1.00;;;0.80;;
22543;SDS011;11438;52.044;8.716;2022-07-05T03:00:45;0.95;;;0.77;;
22543;SDS011;11438;52.044;8.716;2022-07-05T03:03:12;2.65;;;0.80;;
22543;SDS011;11438;52.044;8.716;2022-07-05T03:05:38;1.50;;;0.70;;
22543;SDS011;11438;52.044;8.716;2022-07-05T03:08:03;2.85;;;0.65;;
22543;SDS011;11438;52.044;8.716;2022-07-05T03:10:29;1.30;;;0.73;;
22543;SDS011;11438;52.044;8.716;2022-07-05T03:12:55;0.98;;;0.70;;
22543;SDS011;11438;52.044;8.716;2022-07-05T03:15:20;2.63;;;0.80;;
22543;SDS011;11438;52.044;8.716;2022-07-05T03:17:46;1.50;;;0.80;;
22543;SDS011;11438;52.044;8.716;2022-07-05T03:20:12;1.55;;;0.80;;
22543;SDS011;11438;52.044;8.716;2022-07-05T03:22:37;0.80;;;0.60;;
22543;SDS011;11438;52.044;8.716;2022-07-05T03:25:04;2.65;;;0.73;;
22543;SDS011;11438;52.044;8.716;2022-07-05T03:27:30;0.80;;;0.60;;
22543;SDS011;11438;52.044;8.716;2022-07-05T03:29:56;1.30;;;0.90;;
22543;SDS011;11438;52.044;8.716;2022-07-05T03:32:21;1.30;;;0.98;;
22543;SDS011;11438;52.044;8.716;2022-07-05T03:34:47;2.17;;;0.88;;
22543;SDS011;11438;52.044;8.716;2022-07-05T03:37:12;1.35;;;0.70;;
22543;SDS011;11438;52.044;8.716;2022-07-05T03:39:38;0.90;;;0.70;;
22543;SDS011;11438;52.044;8.716;2022-07-05T03:42:04;1.63;;;0.70;;
22543;SDS011;11438;52.044;8.716;2022-07-05T03:44:29;0.98;;;0.63;;
22543;SDS011;11438;52.044;8.716;2022-07-05T03:46:57;1.60;;;0.80;;
22543;SDS011;11438;52.044;8.716;2022-07-05T03:49:23;2.22;;;0.65;;
22543;SDS011;11438;52.044;8.716;2022-07-05T03:51:49;1.35;;;0.68;;
22543;SDS011;11438;52.044;8.716;2022-07-05T03:54:14;0.93;;;0.70;;
22543;SDS011;11438;52.044;8.716;2022-07-05T03:56:40;1.60;;;1.00;;
22543;SDS011;11438;52.044;8.716;2022-07-05T03:59:05;1.35;;;0.80;;
22543;SDS011;11438;52.044;8.716;2022-07-05T04:01:31;1.52;;;0.82;;
22543;SDS011;11438;52.044;8.716;2022-07-05T04:03:56;0.80;;;0.70;;
22543;SDS011;11438;52.044;8.716;2022-07-05T04:06:22;1.05;;;0.88;;
22543;SDS011;11438;52.044;8.716;2022-07-05T04:08:47;0.98;;;0.73;;
22543;SDS011;11438;52.044;8.716;2022-07-05T04:11:13;1.33;;;0.70;;
22543;SDS011;11438;52.044;8.716;2022-07-05T04:13:40;2.05;;;0.90;;
22543;SDS011;11438;52.044;8.716;2022-07-05T04:16:06;1.10;;;0.70;;
22543;SDS011;11438;52.044;8.716;2022-07-05T04:18:32;0.90;;;0.75;;
22543;SDS011;11438;52.044;8.716;2022-07-05T04:20:57;3.20;;;1.00;;
22543;SDS011;11438;52.044;8.716;2022-07-05T04:23:22;3.17;;;1.15;;
22543;SDS011;11438;52.044;8.716;2022-07-05T04:25:48;4.18;;;1.20;;
22543;SDS011;11438;52.044;8.716;2022-07-05T04:28:13;1.13;;;0.95;;
22543;SDS011;11438;52.044;8.716;2022-07-05T04:30:39;0.93;;;0.80;;
22543;SDS011;11438;52.044;8.716;2022-07-05T04:33:04;2.53;;;1.00;;
22543;SDS011;11438;52.044;8.716;2022-07-05T04:35:30;1.25;;;1.00;;
22543;SDS011;11438;52.044;8.716;2022-07-05T04:37:55;3.47;;;1.23;;
22543;SDS011;11438;52.044;8.716;2022-07-05T04:40:21;0.90;;;0.90;;
22543;SDS011;11438;52.044;8.716;2022-07-05T04:42:46;1.33;;;0.90;;
22543;SDS011;11438;52.044;8.716;2022-07-05T04:45:12;1.58;;;1.00;;
22543;SDS011;11438;52.044;8.716;2022-07-05T04:47:38;1.38;;;0.90;;
22543;SDS011;11438;52.044;8.716;2022-07-05T04:50:04;1.60;;;1.10;;
22543;SDS011;11438;52.044;8.716;2022-07-05T04:52:30;3.30;;;1.00;;
22543;SDS011;11438;52.044;8.716;2022-07-05T04:54:56;1.70;;;0.85;;
22543;SDS011;11438;52.044;8.716;2022-07-05T04:57:21;1.60;;;1.02;;
22543;SDS011;11438;52.044;8.716;2022-07-05T04:59:47;1.55;;;0.90;;
22543;SDS011;11438;52.044;8.716;2022-07-05T05:02:12;2.22;;;1.00;;
22543;SDS011;11438;52.044;8.716;2022-07-05T05:04:38;1.73;;;1.23;;
22543;SDS011;11438;52.044;8.716;2022-07-05T05:07:03;2.30;;;0.93;;
22543;SDS011;11438;52.044;8.716;2022-07-05T05:09:29;2.17;;;1.13;;
22543;SDS011;11438;52.044;8.716;2022-07-05T05:11:54;1.63;;;1.10;;
22543;SDS011;11438;52.044;8.716;2022-07-05T05:14:20;2.05;;;1.30;;
22543;SDS011;11438;52.044;8.716;2022-07-05T05:16:45;1.95;;;1.35;;
22543;SDS011;11438;52.044;8.716;2022-07-05T05:19:11;2.08;;;1.45;;
22543;SDS011;11438;52.044;8.716;2022-07-05T05:21:36;2.13;;;1.30;;
22543;SDS011;11438;52.044;8.716;2022-07-05T05:24:02;2.00;;;1.13;;
22543;SDS011;11438;52.044;8.716;2022-07-05T05:26:28;2.40;;;1.25;;
22543;SDS011;11438;52.044;8.716;2022-07-05T05:28:53;3.00;;;1.25;;
22543;SDS011;11438;52.044;8.716;2022-07-05T05:31:19;1.67;;;1.50;;
22543;SDS011;11438;52.044;8.716;2022-07-05T05:33:45;2.92;;;1.35;;
22543;SDS011;11438;52.044;8.716;2022-07-05T05:36:11;2.53;;;1.20;;
22543;SDS011;11438;52.044;8.716;2022-07-05T05:38:37;1.75;;;1.30;;
22543;SDS011;11438;52.044;8.716;2022-07-05T05:41:02;3.30;;;1.50;;
22543;SDS011;11438;52.044;8.716;2022-07-05T05:43:28;1.73;;;1.10;;
22543;SDS011;11438;52.044;8.716;2022-07-05T05:45:54;1.90;;;1.20;;
22543;SDS011;11438;52.044;8.716;2022-07-05T05:48:19;5.00;;;1.45;;
22543;SDS011;11438;52.044;8.716;2022-07-05T05:50:45;1.20;;;0.98;;
22543;SDS011;11438;52.044;8.716;2022-07-05T05:53:11;1.92;;;1.10;;
22543;SDS011;11438;52.044;8.716;2022-07-05T05:55:37;1.55;;;1.20;;
22543;SDS011;11438;52.044;8.716;2022-07-05T05:58:12;2.50;;;1.00;;
22543;SDS011;11438;52.044;8.716;2022-07-05T06:00:39;2.00;;;0.90;;
22543;SDS011;11438;52.044;8.716;2022-07-05T06:03:05;2.35;;;0.95;;
22543;SDS011;11438;52.044;8.716;2022-07-05T06:05:31;3.47;;;1.02;;
22543;SDS011;11438;52.044;8.716;2022-07-05T06:07:56;1.05;;;0.85;;
22543;SDS011;11438;52.044;8.716;2022-07-05T06:10:29;2.70;;;1.00;;
22543;SDS011;11438;52.044;8.716;2022-07-05T06:12:57;2.22;;;0.90;;
22543;SDS011;11438;52.044;8.716;2022-07-05T06:15:24;2.83;;;1.00;;
22543;SDS011;11438;52.044;8.716;2022-07-05T06:17:49;1.60;;;0.73;;
22543;SDS011;11438;52.044;8.716;2022-07-05T06:20:16;2.45;;;0.80;;
22543;SDS011;11438;52.044;8.716;2022-07-05T06:22:44;2.95;;;0.90;;
22543;SDS011;11438;52.044;8.716;2022-07-05T06:25:10;2.13;;;0.90;;
22543;SDS011;11438;52.044;8.716;2022-07-05T06:27:39;1.50;;;0.68;;
22543;SDS011;11438;52.044;8.716;2022-07-05T06:30:05;2.17;;;0.88;;
22543;SDS011;11438;52.044;8.716;2022-07-05T06:32:32;2.50;;;0.90;;
22543;SDS011;11438;52.044;8.716;2022-07-05T06:34:57;1.63;;;0.90;;
22543;SDS011;11438;52.044;8.716;2022-07-05T06:37:23;2.75;;;0.77;;
22543;SDS011;11438;52.044;8.716;2022-07-05T06:39:48;2.50;;;0.88;;
22543;SDS011;11438;52.044;8.716;2022-07-05T06:42:14;1.98;;;0.80;;
22543;SDS011;11438;52.044;8.716;2022-07-05T06:44:40;1.23;;;0.80;;
22543;SDS011;11438;52.044;8.716;2022-07-05T06:47:05;0.73;;;0.70;;
22543;SDS011;11438;52.044;8.716;2022-07-05T06:49:31;3.88;;;1.02;;
22543;SDS011;11438;52.044;8.716;2022-07-05T06:51:56;1.17;;;0.70;;
22543;SDS011;11438;52.044;8.716;2022-07-05T06:54:22;1.33;;;0.80;;
22543;SDS011;11438;52.044;8.716;2022-07-05T06:56:47;4.85;;;1.20;;
22543;SDS011;11438;52.044;8.716;2022-07-05T06:59:13;2.40;;;0.80;;
22543;SDS011;11438;52.044;8.716;2022-07-05T07:01:38;1.30;;;0.63;;
22543;SDS011;11438;52.044;8.716;2022-07-05T07:04:03;1.48;;;0.70;;
22543;SDS011;11438;52.044;8.716;2022-07-05T07:06:29;1.70;;;0.65;;
22543;SDS011;11438;52.044;8.716;2022-07-05T07:08:54;6.00;;;1.00;;
22543;SDS011;11438;52.044;8.716;2022-07-05T07:11:38;1.88;;;0.90;;
22543;SDS011;11438;52.044;8.716;2022-07-05T07:14:04;2.20;;;0.80;;
22543;SDS011;11438;52.044;8.716;2022-07-05T07:16:29;1.95;;;0.60;;
22543;SDS011;11438;52.044;8.716;2022-07-05T07:18:55;1.77;;;0.60;;
22543;SDS011;11438;52.044;8.716;2022-07-05T07:21:21;2.38;;;0.80;;
22543;SDS011;11438;52.044;8.716;2022-07-05T07:23:46;0.95;;;0.55;;
22543;SDS011;11438;52.044;8.716;2022-07-05T07:26:12;1.08;;;0.60;;
22543;SDS011;11438;52.044;8.716;2022-07-05T07:28:38;1.35;;;0.73;;
22543;SDS011;11438;52.044;8.716;2022-07-05T07:31:04;1.70;;;0.60;;
22543;SDS011;11438;52.044;8.716;2022-07-05T07:33:30;1.00;;;0.50;;
22543;SDS011;11438;52.044;8.716;2022-07-05T07:35:55;3.58;;;1.10;;
22543;SDS011;11438;52.044;8.716;2022-07-05T07:38:21;1.65;;;0.80;;
22543;SDS011;11438;52.044;8.716;2022-07-05T07:40:46;3.97;;;0.63;;
22543;SDS011;11438;52.044;8.716;2022-07-05T07:43:12;1.27;;;0.70;;
22543;SDS011;11438;52.044;8.716;2022-07-05T07:45:37;1.45;;;0.60;;
22543;SDS011;11438;52.044;8.716;2022-07-05T07:48:03;1.27;;;0.50;;
22543;SDS011;11438;52.044;8.716;2022-07-05T07:50:29;0.77;;;0.47;;
22543;SDS011;11438;52.044;8.716;2022-07-05T07:52:54;3.08;;;0.80;;
22543;SDS011;11438;52.044;8.716;2022-07-05T07:55:20;2.33;;;0.70;;
22543;SDS011;11438;52.044;8.716;2022-07-05T07:57:45;2.00;;;0.68;;
22543;SDS011;11438;52.044;8.716;2022-07-05T08:00:11;1.20;;;0.63;;
22543;SDS011;11438;52.044;8.716;2022-07-05T08:02:37;0.90;;;0.50;;
22543;SDS011;11438;52.044;8.716;2022-07-05T08:05:02;0.85;;;0.40;;
22543;SDS011;11438;52.044;8.716;2022-07-05T08:07:30;1.55;;;0.40;;
22543;SDS011;11438;52.044;8.716;2022-07-05T08:09:55;0.73;;;0.30;;
22543;SDS011;11438;52.044;8.716;2022-07-05T08:12:21;1.88;;;0.40;;
22543;SDS011;11438;52.044;8.716;2022-07-05T08:14:46;1.00;;;0.43;;
22543;SDS011;11438;52.044;8.716;2022-07-05T08:17:12;0.82;;;0.57;;
22543;SDS011;11438;52.044;8.716;2022-07-05T08:19:38;0.90;;;0.40;;
22543;SDS011;11438;52.044;8.716;2022-07-05T08:22:22;1.38;;;0.60;;
22543;SDS011;11438;52.044;8.716;2022-07-05T08:24:48;1.10;;;0.40;;
22543;SDS011;11438;52.044;8.716;2022-07-05T08:27:14;0.80;;;0.60;;
22543;SDS011;11438;52.044;8.716;2022-07-05T08:29:40;1.50;;;0.50;;
22543;SDS011;11438;52.044;8.716;2022-07-05T08:32:06;0.95;;;0.55;;
22543;SDS011;11438;52.044;8.716;2022-07-05T08:34:32;2.05;;;0.60;;
22543;SDS011;11438;52.044;8.716;2022-07-05T08:36:58;1.75;;;0.70;;
22543;SDS011;11438;52.044;8.716;2022-07-05T08:39:24;1.48;;;0.60;;
22543;SDS011;11438;52.044;8.716;2022-07-05T08:41:51;1.85;;;0.50;;
22543;SDS011;11438;52.044;8.716;2022-07-05T08:44:17;2.08;;;0.40;;
22543;SDS011;11438;52.044;8.716;2022-07-05T08:46:44;0.63;;;0.40;;
22543;SDS011;11438;52.044;8.716;2022-07-05T08:49:11;0.88;;;0.43;;
22543;SDS011;11438;52.044;8.716;2022-07-05T08:51:39;1.73;;;0.50;;
22543;SDS011;11438;52.044;8.716;2022-07-05T08:54:08;2.08;;;0.70;;
22543;SDS011;11438;52.044;8.716;2022-07-05T08:56:36;1.70;;;0.82;;
22543;SDS011;11438;52.044;8.716;2022-07-05T08:59:02;2.45;;;0.65;;
22543;SDS011;11438;52.044;8.716;2022-07-05T09:01:28;1.83;;;0.55;;
22543;SDS011;11438;52.044;8.716;2022-07-05T09:04:00;1.25;;;0.50;;
22543;SDS011;11438;52.044;8.716;2022-07-05T09:06:30;1.77;;;0.68;;
22543;SDS011;11438;52.044;8.716;2022-07-05T09:08:59;1.15;;;0.55;;
22543;SDS011;11438;52.044;8.716;2022-07-05T09:11:28;1.35;;;0.60;;
22543;SDS011;11438;52.044;8.716;2022-07-05T09:14:00;1.73;;;0.30;;
22543;SDS011;11438;52.044;8.716;2022-07-05T09:16:27;0.80;;;0.40;;
22543;SDS011;11438;52.044;8.716;2022-07-05T09:18:54;2.15;;;0.40;;
22543;SDS011;11438;52.044;8.716;2022-07-05T09:21:20;1.23;;;0.60;;
22543;SDS011;11438;52.044;8.716;2022-07-05T09:23:57;1.45;;;0.60;;
22543;SDS011;11438;52.044;8.716;2022-07-05T09:26:30;1.17;;;0.50;;
22543;SDS011;11438;52.044;8.716;2022-07-05T09:29:00;1.13;;;0.50;;
22543;SDS011;11438;52.044;8.716;2022-07-05T09:31:27;0.63;;;0.40;;
22543;SDS011;11438;52.044;8.716;2022-07-05T09:34:02;0.80;;;0.40;;
22543;SDS011;11438;52.044;8.716;2022-07-05T09:36:46;2.33;;;0.50;;
22543;SDS011;11438;52.044;8.716;2022-07-05T09:39:14;1.13;;;0.65;;
22543;SDS011;11438;52.044;8.716;2022-07-05T09:41:40;0.50;;;0.40;;
22543;SDS011;11438;52.044;8.716;2022-07-05T09:44:05;1.00;;;0.50;;
22543;SDS011;11438;52.044;8.716;2022-07-05T09:46:31;0.70;;;0.50;;
22543;SDS011;11438;52.044;8.716;2022-07-05T09:48:57;2.67;;;0.60;;
22543;SDS011;11438;52.044;8.716;2022-07-05T09:51:23;2.22;;;0.40;;
22543;SDS011;11438;52.044;8.716;2022-07-05T09:53:49;1.15;;;0.60;;
22543;SDS011;11438;52.044;8.716;2022-07-05T09:56:19;0.70;;;0.47;;
22543;SDS011;11438;52.044;8.716;2022-07-05T09:58:46;0.85;;;0.40;;
22543;SDS011;11438;52.044;8.716;2022-07-05T10:01:24;0.80;;;0.60;;
22543;SDS011;11438;52.044;8.716;2022-07-05T10:04:01;2.35;;;0.50;;
22543;SDS011;11438;52.044;8.716;2022-07-05T10:06:27;0.70;;;0.60;;
22543;SDS011;11438;52.044;8.716;2022-07-05T10:08:53;1.38;;;0.50;;
22543;SDS011;11438;52.044;8.716;2022-07-05T10:11:20;1.70;;;0.50;;
22543;SDS011;11438;52.044;8.716;2022-07-05T10:13:47;1.15;;;0.35;;
22543;SDS011;11438;52.044;8.716;2022-07-05T10:16:17;0.73;;;0.40;;
22543;SDS011;11438;52.044;8.716;2022-07-05T10:18:45;1.08;;;0.70;;
22543;SDS011;11438;52.044;8.716;2022-07-05T10:21:15;1.38;;;0.40;;
22543;SDS011;11438;52.044;8.716;2022-07-05T10:23:45;1.00;;;0.50;;
22543;SDS011;11438;52.044;8.716;2022-07-05T10:26:13;1.35;;;0.60;;
22543;SDS011;11438;52.044;8.716;2022-07-05T10:28:40;0.85;;;0.50;;
22543;SDS011;11438;52.044;8.716;2022-07-05T10:31:09;1.48;;;0.60;;
22543;SDS011;11438;52.044;8.716;2022-07-05T10:33:35;0.77;;;0.50;;
22543;SDS011;11438;52.044;8.716;2022-07-05T10:36:01;1.48;;;0.50;;
22543;SDS011;11438;52.044;8.716;2022-07-05T10:38:28;0.88;;;0.63;;
22543;SDS011;11438;52.044;8.716;2022-07-05T10:40:56;1.50;;;0.50;;
22543;SDS011;11438;52.044;8.716;2022-07-05T10:43:25;1.48;;;0.50;;
22543;SDS011;11438;52.044;8.716;2022-07-05T10:45:53;0.85;;;0.52;;
22543;SDS011;11438;52.044;8.716;2022-07-05T10:48:21;1.02;;;0.60;;
22543;SDS011;11438;52.044;8.716;2022-07-05T10:53:26;1.38;;;0.57;;
22543;SDS011;11438;52.044;8.716;2022-07-05T10:58:30;1.20;;;0.50;;
22543;SDS011;11438;52.044;8.716;2022-07-05T11:03:41;1.70;;;0.57;;
22543;SDS011;11438;52.044;8.716;2022-07-05T11:06:09;1.73;;;0.60;;
22543;SDS011;11438;52.044;8.716;2022-07-05T11:11:26;1.02;;;0.60;;
22543;SDS011;11438;52.044;8.716;2022-07-05T11:13:52;1.08;;;0.65;;
22543;SDS011;11438;52.044;8.716;2022-07-05T11:16:20;0.98;;;0.50;;
22543;SDS011;11438;52.044;8.716;2022-07-05T11:18:46;1.10;;;0.57;;
22543;SDS011;11438;52.044;8.716;2022-07-05T11:23:44;1.00;;;0.60;;
22543;SDS011;11438;52.044;8.716;2022-07-05T11:26:11;0.80;;;0.60;;
22543;SDS011;11438;52.044;8.716;2022-07-05T11:28:41;0.85;;;0.60;;
22543;SDS011;11438;52.044;8.716;2022-07-05T11:31:12;0.88;;;0.50;;
22543;SDS011;11438;52.044;8.716;2022-07-05T11:36:24;1.80;;;0.60;;
22543;SDS011;11438;52.044;8.716;2022-07-05T11:39:06;1.35;;;0.50;;
22543;SDS011;11438;52.044;8.716;2022-07-05T11:41:37;1.13;;;0.50;;
22543;SDS011;11438;52.044;8.716;2022-07-05T11:44:06;1.25;;;0.50;;
22543;SDS011;11438;52.044;8.716;2022-07-05T11:46:32;1.65;;;0.70;;
22543;SDS011;11438;52.044;8.716;2022-07-05T11:48:59;3.78;;;0.57;;
22543;SDS011;11438;52.044;8.716;2022-07-05T11:51:25;1.80;;;0.50;;
22543;SDS011;11438;52.044;8.716;2022-07-05T11:53:51;1.30;;;0.50;;
22543;SDS011;11438;52.044;8.716;2022-07-05T11:56:16;1.00;;;0.47;;
22543;SDS011;11438;52.044;8.716;2022-07-05T11:58:42;2.65;;;0.70;;
22543;SDS011;11438;52.044;8.716;2022-07-05T12:01:08;3.22;;;0.60;;
22543;SDS011;11438;52.044;8.716;2022-07-05T12:03:33;1.95;;;0.55;;
22543;SDS011;11438;52.044;8.716;2022-07-05T12:06:09;2.40;;;0.52;;
22543;SDS011;11438;52.044;8.716;2022-07-05T12:08:35;0.85;;;0.50;;
22543;SDS011;11438;52.044;8.716;2022-07-05T12:11:01;1.05;;;0.52;;
22543;SDS011;11438;52.044;8.716;2022-07-05T12:13:47;1.52;;;0.50;;
22543;SDS011;11438;52.044;8.716;2022-07-05T12:16:14;1.40;;;0.50;;
22543;SDS011;11438;52.044;8.716;2022-07-05T12:18:47;1.10;;;0.55;;
22543;SDS011;11438;52.044;8.716;2022-07-05T12:21:17;3.22;;;0.57;;
22543;SDS011;11438;52.044;8.716;2022-07-05T12:23:45;2.47;;;0.60;;
22543;SDS011;11438;52.044;8.716;2022-07-05T12:26:12;0.57;;;0.43;;
22543;SDS011;11438;52.044;8.716;2022-07-05T12:28:39;0.63;;;0.43;;
22543;SDS011;11438;52.044;8.716;2022-07-05T12:33:40;0.50;;;0.40;;
22543;SDS011;11438;52.044;8.716;2022-07-05T12:36:10;1.17;;;0.55;;
22543;SDS011;11438;52.044;8.716;2022-07-05T12:38:37;1.35;;;0.50;;
22543;SDS011;11438;52.044;8.716;2022-07-05T12:41:02;0.60;;;0.50;;
22543;SDS011;11438;52.044;8.716;2022-07-05T12:43:28;0.75;;;0.60;;
22543;SDS011;11438;52.044;8.716;2022-07-05T12:46:00;1.50;;;0.60;;
22543;SDS011;11438;52.044;8.716;2022-07-05T12:48:30;1.98;;;0.43;;
22543;SDS011;11438;52.044;8.716;2022-07-05T12:50:59;1.20;;;0.40;;
22543;SDS011;11438;52.044;8.716;2022-07-05T12:53:26;0.95;;;0.45;;
22543;SDS011;11438;52.044;8.716;2022-07-05T12:56:11;1.30;;;0.50;;
22543;SDS011;11438;52.044;8.716;2022-07-05T12:58:57;0.95;;;0.50;;
22543;SDS011;11438;52.044;8.716;2022-07-05T13:01:27;1.67;;;0.60;;
22543;SDS011;11438;52.044;8.716;2022-07-05T13:09:13;0.57;;;0.47;;
22543;SDS011;11438;52.044;8.716;2022-07-05T13:11:41;0.85;;;0.50;;
22543;SDS011;11438;52.044;8.716;2022-07-05T13:14:08;1.13;;;0.50;;
22543;SDS011;11438;52.044;8.716;2022-07-05T13:16:33;2.35;;;0.52;;
22543;SDS011;11438;52.044;8.716;2022-07-05T13:19:09;0.80;;;0.35;;
22543;SDS011;11438;52.044;8.716;2022-07-05T13:21:35;0.68;;;0.43;;
22543;SDS011;11438;52.044;8.716;2022-07-05T13:24:02;0.57;;;0.55;;
22543;SDS011;11438;52.044;8.716;2022-07-05T13:26:29;2.00;;;0.60;;
22543;SDS011;11438;52.044;8.716;2022-07-05T13:28:54;0.60;;;0.60;;
22543;SDS011;11438;52.044;8.716;2022-07-05T13:31:20;1.05;;;0.38;;
22543;SDS011;11438;52.044;8.716;2022-07-05T13:33:45;0.82;;;0.50;;
22543;SDS011;11438;52.044;8.716;2022-07-05T13:36:11;1.27;;;0.50;;
22543;SDS011;11438;52.044;8.716;2022-07-05T13:38:36;2.25;;;0.70;;
22543;SDS011;11438;52.044;8.716;2022-07-05T13:41:02;1.95;;;0.50;;
22543;SDS011;11438;52.044;8.716;2022-07-05T13:43:27;1.75;;;0.30;;
22543;SDS011;11438;52.044;8.716;2022-07-05T13:45:53;0.65;;;0.50;;
22543;SDS011;11438;52.044;8.716;2022-07-05T13:48:18;2.33;;;0.60;;
22543;SDS011;11438;52.044;8.716;2022-07-05T13:50:44;0.63;;;0.50;;
22543;SDS011;11438;52.044;8.716;2022-07-05T13:53:09;0.80;;;0.47;;
22543;SDS011;11438;52.044;8.716;2022-07-05T13:55:35;2.13;;;0.47;;
22543;SDS011;11438;52.044;8.716;2022-07-05T13:58:00;1.92;;;0.60;;
22543;SDS011;11438;52.044;8.716;2022-07-05T14:00:26;0.88;;;0.40;;
22543;SDS011;11438;52.044;8.716;2022-07-05T14:02:51;1.65;;;0.50;;
22543;SDS011;11438;52.044;8.716;2022-07-05T14:05:17;0.90;;;0.50;;
22543;SDS011;11438;52.044;8.716;2022-07-05T14:07:45;1.77;;;0.50;;
22543;SDS011;11438;52.044;8.716;2022-07-05T14:10:11;3.33;;;0.60;;
22543;SDS011;11438;52.044;8.716;2022-07-05T14:12:37;2.00;;;0.57;;
22543;SDS011;11438;52.044;8.716;2022-07-05T14:15:02;3.22;;;0.63;;
22543;SDS011;11438;52.044;8.716;2022-07-05T14:17:28;1.30;;;0.40;;
22543;SDS011;11438;52.044;8.716;2022-07-05T14:19:53;0.70;;;0.40;;
22543;SDS011;11438;52.044;8.716;2022-07-05T14:22:19;2.17;;;0.50;;
22543;SDS011;11438;52.044;8.716;2022-07-05T14:24:44;2.13;;;1.13;;
22543;SDS011;11438;52.044;8.716;2022-07-05T14:27:10;2.15;;;0.60;;
22543;SDS011;11438;52.044;8.716;2022-07-05T14:29:35;0.77;;;0.60;;
22543;SDS011;11438;52.044;8.716;2022-07-05T14:32:01;1.35;;;0.50;;
22543;SDS011;11438;52.044;8.716;2022-07-05T14:34:26;0.75;;;0.50;;
22543;SDS011;11438;52.044;8.716;2022-07-05T14:36:54;3.80;;;0.70;;
22543;SDS011;11438;52.044;8.716;2022-07-05T14:39:20;0.85;;;0.60;;
22543;SDS011;11438;52.044;8.716;2022-07-05T14:41:46;0.80;;;0.50;;
22543;SDS011;11438;52.044;8.716;2022-07-05T14:44:11;2.05;;;0.60;;
22543;SDS011;11438;52.044;8.716;2022-07-05T14:46:37;0.60;;;0.60;;
22543;SDS011;11438;52.044;8.716;2022-07-05T14:49:03;1.92;;;0.60;;
22543;SDS011;11438;52.044;8.716;2022-07-05T14:51:29;3.45;;;0.50;;
22543;SDS011;11438;52.044;8.716;2022-07-05T14:53:54;1.98;;;0.60;;
22543;SDS011;11438;52.044;8.716;2022-07-05T14:56:20;0.60;;;0.45;;
22543;SDS011;11438;52.044;8.716;2022-07-05T14:58:45;1.75;;;0.50;;
22543;SDS011;11438;52.044;8.716;2022-07-05T15:01:13;0.88;;;0.52;;
22543;SDS011;11438;52.044;8.716;2022-07-05T15:03:39;0.75;;;0.60;;
22543;SDS011;11438;52.044;8.716;2022-07-05T15:06:05;0.55;;;0.40;;
22543;SDS011;11438;52.044;8.716;2022-07-05T15:08:30;1.05;;;0.85;;